Time;durP1;ratioP1;P1;durP2;ratioP2;P2;SDS_P1;SDS_P2;PMS_P1;PMS_P2;Temp;Humidity;BMP_temperature;BMP_pressure;BME280_temperature;BME280_humidity;BME280_pressure;Samples;Min_cycle;Max_cycle;Signal;HPM_P1;HPM_P2
2023/01/07 00:00:09;;;;;;;27.70;18.60;;;;;;;1.84;89.75;100702.25;107232;1257;88809;-58
2023/01/07 00:03:10;;;;;;;29.70;18.50;;;;;;;1.89;89.65;100711.26;107176;1257;94195;-58
2023/01/07 00:05:51;;;;;;;28.40;17.70;;;;;;;1.90;89.67;100710.31;107155;1257;81388;-58
2023/01/07 00:08:31;;;;;;;25.90;19.10;;;;;;;1.90;89.74;100712.95;107170;1257;82031;-54
2023/01/07 00:11:11;;;;;;;25.50;17.50;;;;;;;1.94;89.61;100722.97;107149;1257;97845;-57
2023/01/07 00:13:58;;;;;;;30.40;20.10;;;;;;;1.93;89.62;100727.66;107129;1257;87917;-58
2023/01/07 00:16:36;;;;;;;29.80;20.60;;;;;;;1.92;89.79;100725.80;107126;1257;95122;-57
2023/01/07 00:19:16;;;;;;;29.60;19.10;;;;;;;1.86;89.77;100731.02;107127;1257;80506;-57
2023/01/07 00:22:01;;;;;;;29.60;19.70;;;;;;;1.90;89.83;100727.52;107145;1258;82756;-58
2023/01/07 00:24:38;;;;;;;31.20;21.30;;;;;;;1.89;89.80;100733.27;107156;1257;97244;-55
2023/01/07 00:27:18;;;;;;;27.40;19.40;;;;;;;1.89;90.00;100735.59;107146;1257;88821;-51
2023/01/07 00:30:00;;;;;;;29.00;19.80;;;;;;;1.88;89.79;100738.70;107123;1261;93439;-56
2023/01/07 00:32:58;;;;;;;26.20;18.00;;;;;;;1.87;89.76;100742.84;107143;1257;79517;-57
2023/01/07 00:35:43;;;;;;;29.80;19.20;;;;;;;1.87;89.81;100751.98;107172;1260;81057;-56
2023/01/07 00:38:23;;;;;;;28.60;19.40;;;;;;;1.88;89.82;100750.44;107185;1257;99314;-56
2023/01/07 00:41:02;;;;;;;33.10;21.60;;;;;;;1.88;89.83;100751.48;107133;1257;88638;-55
2023/01/07 00:43:39;;;;;;;25.90;19.10;;;;;;;1.88;89.66;100744.53;107225;1257;95060;-51
2023/01/07 00:46:20;;;;;;;30.80;20.40;;;;;;;1.89;89.86;100741.43;107187;1257;79539;-56
2023/01/07 00:49:05;;;;;;;30.20;19.50;;;;;;;1.91;89.69;100734.58;107215;1257;83057;-56
2023/01/07 00:51:53;;;;;;;26.20;17.00;;;;;;;1.93;89.75;100738.30;107163;1257;96888;-52
2023/01/07 00:54:35;;;;;;;29.50;17.70;;;;;;;1.89;89.73;100741.48;107153;1257;88041;-55
2023/01/07 00:57:14;;;;;;;29.70;18.30;;;;;;;1.87;89.86;100750.83;107089;1262;94288;-52
2023/01/07 01:00:00;;;;;;;28.30;17.40;;;;;;;1.83;89.92;100760.60;107150;1257;80221;-55
2023/01/07 01:02:41;;;;;;;30.40;19.30;;;;;;;1.84;89.83;100758.95;107159;1257;83158;-55
2023/01/07 01:05:24;;;;;;;33.70;19.00;;;;;;;1.87;90.12;100766.64;107172;1257;98114;-55
2023/01/07 01:07:59;;;;;;;30.80;18.20;;;;;;;1.90;89.93;100773.34;107146;1257;89466;-54
2023/01/07 01:10:39;;;;;;;32.60;19.40;;;;;;;1.91;89.87;100772.57;107172;1257;94650;-57
2023/01/07 01:13:19;;;;;;;31.10;18.20;;;;;;;1.90;90.01;100775.65;107172;1257;79986;-57
2023/01/07 01:16:07;;;;;;;33.40;18.70;;;;;;;1.92;90.07;100771.39;107171;1257;83141;-57
2023/01/07 01:18:45;;;;;;;31.10;19.30;;;;;;;1.94;90.20;100772.15;107167;1257;96644;-60
2023/01/07 01:21:28;;;;;;;35.40;20.10;;;;;;;1.94;90.15;100770.89;107135;1257;88861;-58
2023/01/07 01:24:08;;;;;;;32.90;19.40;;;;;;;1.92;90.11;100774.42;107127;1257;93175;-53
2023/01/07 01:26:47;;;;;;;30.50;17.60;;;;;;;1.91;90.10;100767.60;107171;1257;81101;-57
2023/01/07 01:29:21;;;;;;;30.50;18.20;;;;;;;1.90;90.34;100763.19;107220;1257;82237;-57
2023/01/07 01:31:59;;;;;;;;;;;;;;;1.90;90.37;100767.13;107208;1257;97774;-58
2023/01/07 01:34:36;;;;;;;31.20;19.20;;;;;;;1.91;90.27;100775.23;107222;1257;89707;-57
2023/01/07 01:37:11;;;;;;;33.70;18.70;;;;;;;1.93;90.26;100765.32;107172;1258;95212;-59
2023/01/07 01:39:46;;;;;;;;;;;;;;;1.88;90.19;100771.55;107170;1258;80565;-56
2023/01/07 01:42:25;;;;;;;32.50;18.80;;;;;;;1.87;90.30;100772.58;107161;1257;81653;-56
2023/01/07 01:45:07;;;;;;;29.30;17.30;;;;;;;1.89;90.29;100780.69;107141;1258;98254;-50
2023/01/07 01:47:50;;;;;;;32.90;18.80;;;;;;;1.91;90.34;100779.30;107153;1257;87789;-56
2023/01/07 01:50:30;;;;;;;35.70;18.80;;;;;;;1.94;90.41;100780.98;107154;1257;95627;-54
2023/01/07 01:53:13;;;;;;;35.90;19.80;;;;;;;1.96;90.32;100788.84;107153;1259;80192;-55
2023/01/07 01:55:59;;;;;;;35.90;19.50;;;;;;;1.95;90.51;100788.93;107182;1257;83018;-57
2023/01/07 01:58:43;;;;;;;41.70;22.10;;;;;;;1.94;90.62;100790.05;107161;1257;96946;-56
2023/01/07 02:01:23;;;;;;;37.30;20.50;;;;;;;1.99;90.51;100791.46;107177;1257;87330;-47
2023/01/07 02:04:00;;;;;;;35.10;19.70;;;;;;;1.97;90.42;100789.14;107164;1257;94135;-56
2023/01/07 02:06:38;;;;;;;38.90;20.60;;;;;;;1.98;90.40;100790.80;107148;1257;78485;-55
2023/01/07 02:09:16;;;;;;;36.90;19.70;;;;;;;2.01;90.50;100781.13;107183;1257;82174;-58
2023/01/07 02:12:05;;;;;;;42.60;23.70;;;;;;;2.00;90.41;100777.29;107204;1257;97279;-58
2023/01/07 02:15:05;;;;;;;36.70;19.80;;;;;;;1.96;90.48;100778.17;107176;1257;88465;-54
2023/01/07 02:18:03;;;;;;;35.90;19.90;;;;;;;1.98;90.57;100781.20;107172;1257;96209;-55
2023/01/07 02:20:55;;;;;;;;;;;;;;;1.98;90.40;100776.56;107249;1258;80083;-59
2023/01/07 02:24:33;;;;;;;40.40;23.30;;;;;;;1.99;90.55;100777.04;107283;1261;82461;-55
2023/01/07 02:27:27;;;;;;;38.90;20.90;;;;;;;2.03;90.38;100775.45;107081;1257;98314;-56
2023/01/07 02:30:46;;;;;;;42.30;21.40;;;;;;;2.04;90.40;100770.38;107195;1261;89091;-56
2023/01/07 02:33:38;;;;;;;36.60;21.30;;;;;;;2.06;90.46;100765.09;107163;1257;93982;-58
2023/01/07 02:36:42;;;;;;;38.50;22.10;;;;;;;2.11;90.42;100766.29;107153;1257;81207;-57
2023/01/07 02:39:36;;;;;;;40.80;21.00;;;;;;;2.14;90.53;100764.05;107146;1257;83324;-57
2023/01/07 02:42:28;;;;;;;40.30;22.40;;;;;;;2.19;90.50;100765.41;107137;1257;100153;-49
2023/01/07 02:45:15;;;;;;;39.00;21.70;;;;;;;2.20;90.45;100768.14;107128;1257;88758;-57
2023/01/07 02:47:58;;;;;;;45.00;23.30;;;;;;;2.19;90.55;100766.16;107050;1257;95827;-58
2023/01/07 02:50:33;;;;;;;38.10;21.80;;;;;;;2.17;90.60;100770.20;106977;1257;80143;-58
2023/01/07 02:53:13;;;;;;;39.80;22.50;;;;;;;2.15;90.68;100764.86;107071;1258;82453;-58
2023/01/07 02:56:01;;;;;;;42.40;23.20;;;;;;;2.20;90.49;100763.88;107079;1257;96337;-56
2023/01/07 02:59:12;;;;;;;44.40;24.10;;;;;;;2.24;90.48;100766.80;107091;1261;88473;-58
2023/01/07 03:02:18;;;;;;;42.80;23.60;;;;;;;2.25;90.51;100769.40;107085;1257;94227;-59
2023/01/07 03:05:27;;;;;;;41.20;23.20;;;;;;;2.23;90.61;100765.27;107095;1259;81918;-59
2023/01/07 03:08:23;;;;;;;41.40;22.80;;;;;;;2.27;90.41;100764.43;107162;1257;82045;-53
2023/01/07 03:11:10;;;;;;;40.20;22.60;;;;;;;2.28;90.41;100770.73;107113;1258;98254;-58
2023/01/07 03:13:58;;;;;;;41.00;23.40;;;;;;;2.29;90.46;100776.49;107142;1257;87493;-59
2023/01/07 03:16:47;;;;;;;38.30;22.10;;;;;;;2.29;90.64;100774.19;107093;1257;93270;-58
2023/01/07 03:19:34;;;;;;;37.70;21.20;;;;;;;2.30;90.67;100770.83;107095;1257;78714;-59
2023/01/07 03:22:20;;;;;;;41.50;22.20;;;;;;;2.30;90.65;100768.87;107108;1257;82749;-59
2023/01/07 03:25:07;;;;;;;38.50;23.00;;;;;;;2.27;90.62;100775.77;107089;1257;98088;-56
2023/01/07 03:27:49;;;;;;;37.90;22.00;;;;;;;2.22;90.69;100767.46;107066;1257;89646;-56
2023/01/07 03:30:30;;;;;;;38.40;22.00;;;;;;;2.22;90.68;100772.50;107104;1261;94473;-55
2023/01/07 03:33:18;;;;;;;39.70;22.80;;;;;;;2.19;90.75;100772.70;107067;1259;77871;-48
2023/01/07 03:36:06;;;;;;;37.10;20.80;;;;;;;2.16;90.82;100772.25;107080;1257;79733;-56
2023/01/07 03:38:47;;;;;;;38.50;21.10;;;;;;;2.17;90.80;100775.52;107092;1257;97220;-57
2023/01/07 03:44:31;;;;;;;41.70;22.10;;;;;;;2.11;90.76;100768.19;107086;1259;93969;-57
2023/01/07 03:47:10;;;;;;;36.10;21.90;;;;;;;2.13;90.63;100766.47;107101;1257;76161;-56
2023/01/07 03:49:49;;;;;;;37.80;21.40;;;;;;;2.10;90.82;100763.89;107144;1257;80675;-56
2023/01/07 03:52:35;;;;;;;41.40;22.30;;;;;;;2.09;90.93;100769.83;107137;1259;97592;-55
2023/01/07 03:55:12;;;;;;;39.40;20.70;;;;;;;2.11;90.90;100776.53;107096;1257;87571;-57
2023/01/07 03:57:52;;;;;;;34.50;19.60;;;;;;;2.15;90.78;100774.61;107152;1262;92227;-54
2023/01/07 04:00:35;;;;;;;34.10;19.10;;;;;;;2.17;90.91;100768.98;107087;1259;80797;-60
2023/01/07 04:03:15;;;;;;;33.20;19.10;;;;;;;2.15;90.82;100770.95;107143;1257;81667;-59
2023/01/07 04:05:55;;;;;;;38.00;22.80;;;;;;;2.19;90.97;100771.11;107051;1257;98325;-56
2023/01/07 04:08:35;;;;;;;35.70;22.00;;;;;;;2.24;90.97;100777.98;107035;1257;88357;-55
2023/01/07 04:11:26;;;;;;;33.90;20.90;;;;;;;2.26;91.14;100775.31;107038;1257;95482;-55
2023/01/07 04:14:07;;;;;;;37.20;22.00;;;;;;;2.28;91.21;100780.87;107049;1258;81726;-57
2023/01/07 04:16:50;;;;;;;36.30;21.10;;;;;;;2.29;91.15;100778.26;107070;1259;81537;-56
2023/01/07 04:19:30;;;;;;;36.00;21.30;;;;;;;2.29;91.21;100775.73;107033;1257;98628;-57
2023/01/07 04:22:13;;;;;;;35.30;20.00;;;;;;;2.31;91.18;100771.14;107066;1258;88499;-56
2023/01/07 04:24:59;;;;;;;32.40;19.30;;;;;;;2.32;91.11;100770.35;107061;1257;93670;-58
2023/01/07 04:27:46;;;;;;;33.90;19.60;;;;;;;2.28;91.11;100775.48;107068;1258;79710;-58
2023/01/07 04:30:25;;;;;;;33.80;20.00;;;;;;;2.25;91.04;100770.05;107097;1259;80968;-57
2023/01/07 04:33:05;;;;;;;34.80;19.30;;;;;;;2.20;91.03;100773.48;107090;1257;99505;-57
2023/01/07 04:35:45;;;;;;;30.90;19.30;;;;;;;2.16;91.04;100773.45;107107;1259;86875;-54
2023/01/07 04:38:20;;;;;;;32.40;19.80;;;;;;;2.15;90.88;100774.61;107105;1258;94299;-57
2023/01/07 04:40:58;;;;;;;;;;;;;;;2.14;90.97;100775.46;107130;1257;77930;-55
2023/01/07 04:43:36;;;;;;;35.00;19.60;;;;;;;2.13;91.01;100778.73;107177;1258;82072;-57
2023/01/07 04:46:10;;;;;;;31.00;18.20;;;;;;;2.07;91.19;100774.41;107082;1258;97275;-58
2023/01/07 04:48:50;;;;;;;31.20;19.70;;;;;;;2.06;91.23;100779.45;107127;1259;88936;-58
2023/01/07 04:51:37;;;;;;;34.40;19.00;;;;;;;2.09;91.23;100784.23;107050;1259;95421;-56
2023/01/07 04:54:17;;;;;;;32.60;19.70;;;;;;;2.13;91.18;100779.06;107030;1257;80559;-57
2023/01/07 04:57:04;;;;;;;28.70;18.80;;;;;;;2.17;91.19;100775.03;107073;1259;82520;-54
2023/01/07 04:59:41;;;;;;;31.50;18.60;;;;;;;2.19;91.27;100783.36;107084;1257;99293;-57
2023/01/07 05:02:19;;;;;;;29.30;18.50;;;;;;;2.21;91.23;100790.11;107089;1258;87181;-52
2023/01/07 05:05:00;;;;;;;36.30;21.60;;;;;;;2.24;91.53;100800.75;107060;1259;93310;-57
2023/01/07 05:07:43;;;;;;;32.70;19.60;;;;;;;2.25;91.32;100803.80;107055;1259;81878;-56
2023/01/07 05:10:22;;;;;;;31.90;19.30;;;;;;;2.25;91.49;100811.86;107028;1257;81503;-56
2023/01/07 05:13:04;;;;;;;30.00;19.30;;;;;;;2.25;91.45;100803.58;107064;1257;97127;-57
2023/01/07 05:15:45;;;;;;;32.60;20.20;;;;;;;2.31;91.33;100803.80;107081;1258;88556;-59
2023/01/07 05:18:30;;;;;;;34.40;20.10;;;;;;;2.33;91.29;100806.83;107102;1262;94648;-58
2023/01/07 05:21:09;;;;;;;32.60;20.20;;;;;;;2.30;91.28;100803.75;107028;1258;79375;-57
2023/01/07 05:23:49;;;;;;;30.10;17.70;;;;;;;2.29;91.40;100806.70;107103;1258;82661;-56
2023/01/07 05:26:30;;;;;;;30.80;17.60;;;;;;;2.29;91.45;100816.66;107129;1262;98631;-54
2023/01/07 05:29:14;;;;;;;27.90;17.70;;;;;;;2.29;91.40;100819.27;107168;1257;88097;-58
2023/01/07 05:31:57;;;;;;;29.80;18.00;;;;;;;2.28;91.45;100821.72;107102;1260;95337;-55
2023/01/07 05:34:42;;;;;;;29.60;18.10;;;;;;;2.28;91.36;100823.27;107081;1257;79412;-57
2023/01/07 05:37:19;;;;;;;28.30;17.80;;;;;;;2.27;91.45;100823.55;107103;1257;82338;-57
2023/01/07 05:40:00;;;;;;;30.00;19.10;;;;;;;2.29;91.41;100822.70;107103;1259;97238;-60
2023/01/07 05:42:40;;;;;;;34.00;20.00;;;;;;;2.29;91.52;100820.90;107065;1259;88496;-58
2023/01/07 05:45:30;;;;;;;30.10;18.50;;;;;;;2.26;91.40;100822.77;107051;1261;95304;-57
2023/01/07 05:48:12;;;;;;;30.90;17.70;;;;;;;2.25;91.46;100824.80;107030;1258;82084;-54
2023/01/07 05:50:49;;;;;;;28.50;18.10;;;;;;;2.24;91.42;100828.21;107059;1259;82132;-59
2023/01/07 05:53:29;;;;;;;27.10;17.60;;;;;;;2.26;91.62;100834.79;107066;1257;97978;-62
2023/01/07 05:56:07;;;;;;;27.50;17.40;;;;;;;2.32;91.57;100831.66;107091;1259;87293;-59
2023/01/07 05:58:46;;;;;;;28.50;18.00;;;;;;;2.38;91.80;100831.89;106634;1259;536481;-57
2023/01/07 06:01:33;;;;;;;24.90;16.20;;;;;;;2.43;91.70;100829.19;107089;1259;81838;-58
2023/01/07 06:04:08;;;;;;;29.10;19.00;;;;;;;2.46;91.72;100828.70;107074;1258;83004;-59
2023/01/07 06:06:48;;;;;;;26.40;16.50;;;;;;;2.54;91.78;100827.19;107107;1261;98346;-58
2023/01/07 06:09:31;;;;;;;28.10;16.30;;;;;;;2.59;91.91;100828.92;107075;1257;88508;-59
2023/01/07 06:12:07;;;;;;;29.40;17.30;;;;;;;2.59;91.84;100831.35;107094;1259;93670;-59
2023/01/07 06:14:48;;;;;;;28.20;17.70;;;;;;;2.62;91.90;100831.98;107079;1259;80614;-59
2023/01/07 06:17:30;;;;;;;23.90;16.70;;;;;;;2.66;91.84;100837.36;107079;1258;83271;-58
2023/01/07 06:20:09;;;;;;;27.80;17.50;;;;;;;2.71;91.88;100841.52;107110;1258;98260;-59
2023/01/07 06:22:53;;;;;;;23.60;16.20;;;;;;;2.80;92.09;100842.71;107099;1259;88237;-61
2023/01/07 06:25:32;;;;;;;26.50;16.70;;;;;;;2.88;92.03;100847.05;107062;1259;95284;-59
2023/01/07 06:28:09;;;;;;;25.10;16.20;;;;;;;2.87;91.91;100850.45;107085;1259;79958;-59
2023/01/07 06:30:53;;;;;;;27.20;17.10;;;;;;;2.90;91.94;100850.52;107042;1259;80709;-58
2023/01/07 06:33:36;;;;;;;24.50;15.90;;;;;;;2.93;92.07;100855.33;107072;1259;98674;-57
2023/01/07 06:36:15;;;;;;;24.50;16.10;;;;;;;2.97;92.19;100858.67;107028;1259;89288;-56
2023/01/07 06:38:55;;;;;;;24.10;16.40;;;;;;;3.05;92.15;100863.45;107046;1259;96193;-56
2023/01/07 06:41:39;;;;;;;25.60;16.00;;;;;;;3.08;92.26;100865.66;107011;1259;81930;-57
2023/01/07 06:44:23;;;;;;;22.50;15.00;;;;;;;3.12;92.11;100869.16;107039;1262;81900;-57
2023/01/07 06:46:59;;;;;;;25.30;16.20;;;;;;;3.13;92.07;100868.55;107011;1259;98762;-57
2023/01/07 06:49:39;;;;;;;26.10;16.50;;;;;;;3.15;92.19;100870.48;107081;1258;87669;-55
2023/01/07 06:52:20;;;;;;;26.70;17.20;;;;;;;3.19;92.09;100871.60;107105;1257;93695;-48
2023/01/07 06:59:51;;;;;;;27.40;16.00;;;;;;;3.25;92.27;100878.89;107414;1256;82803;-60
2023/01/07 07:02:31;;;;;;;24.20;15.50;;;;;;;3.26;92.25;100884.03;107463;1257;96255;-59
2023/01/07 07:05:10;;;;;;;27.10;17.20;;;;;;;3.32;92.42;100887.77;107322;1255;88719;-59
2023/01/07 07:07:55;;;;;;;30.90;17.90;;;;;;;3.44;92.58;100893.06;107451;1254;93423;-59
2023/01/07 07:10:35;;;;;;;29.10;17.50;;;;;;;3.47;92.65;100897.30;107306;1256;79555;-55
2023/01/07 07:13:14;;;;;;;29.00;15.50;;;;;;;3.53;92.66;100895.11;107461;1258;82579;-56
2023/01/07 07:16:03;;;;;;;35.00;18.60;;;;;;;3.61;92.88;100899.67;107401;1257;97365;-59
2023/01/07 07:18:43;;;;;;;28.30;16.10;;;;;;;3.65;92.96;100900.88;107430;1255;86186;-58
2023/01/07 07:21:22;;;;;;;28.60;15.60;;;;;;;3.72;92.97;100904.70;107382;1257;93023;-60
2023/01/07 07:24:04;;;;;;;29.50;16.70;;;;;;;3.83;93.02;100902.65;107441;1254;79392;-60
2023/01/07 07:26:39;;;;;;;;;;;;;;;3.99;93.11;100904.66;107492;1258;82601;-60
2023/01/07 07:29:14;;;;;;;31.20;17.00;;;;;;;4.03;93.14;100905.21;107436;1257;98925;-58
2023/01/07 07:31:56;;;;;;;33.60;17.80;;;;;;;4.04;93.16;100907.74;107396;1257;89002;-57
2023/01/07 07:34:36;;;;;;;30.10;17.90;;;;;;;4.09;93.34;100907.88;107420;1257;94825;-56
2023/01/07 07:37:17;;;;;;;29.40;16.10;;;;;;;4.13;93.32;100902.32;107436;1258;82036;-59
2023/01/07 07:39:59;;;;;;;28.40;17.10;;;;;;;4.20;93.19;100903.13;107486;1258;81696;-60
2023/01/07 07:42:36;;;;;;;27.60;15.90;;;;;;;4.29;93.36;100904.12;107425;1254;98807;-60
2023/01/07 07:45:14;;;;;;;29.80;17.00;;;;;;;4.34;93.51;100902.20;107480;1258;85800;-60
2023/01/07 07:47:54;;;;;;;32.40;17.40;;;;;;;4.36;93.23;100907.71;107466;1259;95075;-60
2023/01/07 07:50:40;;;;;;;28.60;16.50;;;;;;;4.38;93.43;100905.98;107472;1257;81986;-57
2023/01/07 07:53:23;;;;;;;27.90;17.10;;;;;;;4.39;93.51;100909.29;107324;1255;81235;-50
2023/01/07 07:56:03;;;;;;;26.50;15.80;;;;;;;4.43;93.44;100909.80;107457;1254;98975;-56
2023/01/07 07:58:48;;;;;;;27.60;16.10;;;;;;;4.50;93.51;100906.48;107438;1257;88956;-56
2023/01/07 08:01:32;;;;;;;;;;;;;;;4.53;93.55;100910.30;107443;1255;93820;-60
2023/01/07 08:04:12;;;;;;;27.00;16.50;;;;;;;4.58;93.56;100911.11;107449;1255;83743;-58
2023/01/07 08:06:55;;;;;;;29.40;16.60;;;;;;;4.62;93.50;100910.37;107420;1254;83115;-56
2023/01/07 08:09:44;;;;;;;27.10;16.70;;;;;;;4.68;93.43;100917.88;107378;1257;99112;-59
2023/01/07 08:12:21;;;;;;;27.40;16.00;;;;;;;4.75;93.43;100926.42;107247;1257;88044;-58
2023/01/07 08:15:01;;;;;;;27.30;17.20;;;;;;;4.78;93.42;100929.38;107442;1257;94913;-57
2023/01/07 08:17:43;;;;;;;27.90;16.20;;;;;;;4.81;93.48;100925.80;107427;1255;78759;-58
2023/01/07 08:20:22;;;;;;;;;;;;;;;4.78;93.48;100925.10;107460;1256;82189;-56
2023/01/07 08:23:15;;;;;;;30.50;16.90;;;;;;;4.78;93.37;100919.23;107392;1256;98448;-55
2023/01/07 08:26:01;;;;;;;29.30;18.30;;;;;;;4.80;93.55;100920.50;107423;1257;87144;-59
2023/01/07 08:28:41;;;;;;;29.10;17.50;;;;;;;4.83;93.57;100915.55;107243;1257;95543;-57
2023/01/07 08:31:21;;;;;;;31.20;18.00;;;;;;;4.89;93.57;100917.02;107456;1259;80487;-57
2023/01/07 08:34:03;;;;;;;28.50;17.80;;;;;;;4.93;93.65;100913.06;107441;1258;82954;-57
2023/01/07 08:36:40;;;;;;;31.20;18.40;;;;;;;5.00;93.66;100912.52;107493;1255;98150;-59
2023/01/07 08:39:18;;;;;;;33.90;19.00;;;;;;;5.06;93.66;100909.63;107436;1256;86665;-60
2023/01/07 08:41:55;;;;;;;30.00;18.30;;;;;;;5.12;93.60;100912.45;107441;1255;96000;-50
2023/01/07 08:44:31;;;;;;;30.20;19.50;;;;;;;5.21;93.93;100917.52;107432;1257;79776;-60
2023/01/07 08:47:15;;;;;;;34.00;20.50;;;;;;;5.26;93.72;100921.55;107481;1257;82548;-59
2023/01/07 08:49:56;;;;;;;32.00;19.90;;;;;;;5.28;93.67;100920.80;107455;1254;99150;-60
2023/01/07 08:52:34;;;;;;;35.10;19.30;;;;;;;5.32;93.69;100928.14;107274;1257;87892;-59
2023/01/07 08:55:09;;;;;;;32.10;19.40;;;;;;;5.38;93.51;100928.31;107418;1254;95621;-59
2023/01/07 08:57:49;;;;;;;30.20;19.40;;;;;;;5.43;93.53;100928.52;107428;1257;80996;-60
2023/01/07 09:00:27;;;;;;;32.20;20.50;;;;;;;5.48;93.58;100927.67;107217;1262;84234;-58
2023/01/07 09:03:02;;;;;;;32.40;19.70;;;;;;;5.51;93.53;100923.80;107254;1256;98256;-57
2023/01/07 09:05:40;;;;;;;32.60;19.40;;;;;;;5.55;93.53;100919.19;107149;1256;88098;-56
2023/01/07 09:08:22;;;;;;;30.10;17.80;;;;;;;5.67;93.42;100923.56;107205;1256;93727;-58
2023/01/07 09:11:00;;;;;;;27.50;19.20;;;;;;;5.77;93.46;100927.42;107306;1260;79369;-58
2023/01/07 09:13:37;;;;;;;29.00;19.20;;;;;;;5.88;93.62;100927.62;107306;1257;82549;-54
2023/01/07 09:16:16;;;;;;;30.10;18.60;;;;;;;5.99;93.43;100931.26;107293;1257;99413;-50
2023/01/07 09:18:59;;;;;;;27.40;18.30;;;;;;;6.04;93.25;100932.52;107283;1256;89609;-56
2023/01/07 09:21:39;;;;;;;28.00;17.80;;;;;;;6.12;93.34;100937.30;107312;1256;94818;-50
2023/01/07 09:24:16;;;;;;;25.80;18.50;;;;;;;6.18;93.16;100935.50;107261;1256;79485;-57
2023/01/07 09:27:04;;;;;;;28.00;18.80;;;;;;;6.18;92.94;100928.32;107286;1257;83624;-60
2023/01/07 09:29:42;;;;;;;27.70;18.80;;;;;;;6.17;93.08;100929.12;107312;1260;98360;-59
2023/01/07 09:32:21;;;;;;;28.60;18.50;;;;;;;6.17;92.74;100931.30;107298;1260;87369;-59
2023/01/07 09:35:00;;;;;;;28.90;18.20;;;;;;;6.14;92.58;100930.85;107311;1256;94381;-53
2023/01/07 09:37:37;;;;;;;27.20;17.70;;;;;;;6.10;92.53;100931.61;107273;1260;81238;-57
2023/01/07 09:40:26;;;;;;;26.60;17.40;;;;;;;6.12;92.47;100931.37;107200;1258;82621;-58
2023/01/07 09:43:12;;;;;;;26.40;17.90;;;;;;;6.09;92.61;100933.44;107305;1256;95526;-57
2023/01/07 09:45:54;;;;;;;29.40;19.00;;;;;;;6.06;92.87;100930.58;107273;1256;87896;-63
2023/01/07 09:48:38;;;;;;;27.50;16.90;;;;;;;6.07;92.61;100930.44;107265;1256;95223;-60
2023/01/07 09:51:28;;;;;;;30.30;18.50;;;;;;;5.95;92.57;100930.67;107264;1258;82129;-59
2023/01/07 09:54:17;;;;;;;28.60;18.80;;;;;;;5.94;92.70;100929.86;107039;1256;81095;-57
2023/01/07 09:56:55;;;;;;;29.00;17.60;;;;;;;5.99;92.54;100935.52;107262;1256;98404;-57
2023/01/07 09:59:32;;;;;;;26.10;17.10;;;;;;;5.99;92.53;100935.69;107270;1259;88911;-57
2023/01/07 10:02:24;;;;;;;30.70;17.90;;;;;;;6.04;92.48;100933.64;107309;1259;94362;-56
2023/01/07 10:05:14;;;;;;;26.60;17.00;;;;;;;6.05;92.54;100935.63;107306;1257;80293;-59
2023/01/07 10:07:59;;;;;;;31.50;18.20;;;;;;;6.03;92.52;100934.40;107352;1257;82416;-58
2023/01/07 10:10:50;;;;;;;29.20;17.30;;;;;;;6.09;92.65;100935.11;107179;1257;95869;-56
2023/01/07 10:13:53;;;;;;;27.20;17.20;;;;;;;6.19;92.65;100933.23;107392;1257;89321;-57
2023/01/07 10:16:39;;;;;;;27.60;18.00;;;;;;;6.28;92.60;100930.17;107383;1257;95650;-57
2023/01/07 10:19:25;;;;;;;26.30;17.30;;;;;;;6.38;92.55;100929.75;107388;1257;80747;-52
2023/01/07 10:22:14;;;;;;;25.80;16.50;;;;;;;6.46;92.31;100921.73;107341;1256;82435;-58
2023/01/07 10:25:02;;;;;;;27.70;16.80;;;;;;;6.56;92.46;100917.02;107350;1257;97192;-57
2023/01/07 10:27:41;;;;;;;24.30;16.40;;;;;;;6.63;92.37;100912.80;107336;1259;89387;-59
2023/01/07 10:30:23;;;;;;;25.60;16.00;;;;;;;6.87;92.31;100909.41;107329;1259;94014;-56
2023/01/07 10:33:17;;;;;;;24.80;16.80;;;;;;;6.91;92.14;100905.42;107306;1259;80444;-56
2023/01/07 10:36:01;;;;;;;24.70;16.30;;;;;;;6.89;92.09;100904.36;107387;1258;80726;-57
2023/01/07 10:38:47;;;;;;;24.00;15.40;;;;;;;6.87;92.14;100904.31;107326;1258;98558;-55
2023/01/07 10:41:32;;;;;;;24.50;15.50;;;;;;;6.93;91.92;100903.27;107355;1257;87731;-58
2023/01/07 10:44:48;;;;;;;22.30;15.00;;;;;;;6.94;91.79;100903.73;107272;1257;95564;-58
2023/01/07 10:47:47;;;;;;;19.30;14.50;;;;;;;6.89;91.94;100902.82;107163;1260;79409;-52
2023/01/07 10:50:57;;;;;;;25.90;16.20;;;;;;;6.91;91.80;100898.62;107343;1256;83329;-58
2023/01/07 10:53:48;;;;;;;25.90;17.00;;;;;;;6.89;91.54;100899.58;107329;1258;97930;-59
2023/01/07 10:56:33;;;;;;;23.70;16.20;;;;;;;6.88;91.35;100897.95;107350;1257;88240;-55
2023/01/07 10:59:15;;;;;;;30.60;17.40;;;;;;;6.90;91.30;100896.10;107302;1258;95496;-57
2023/01/07 11:01:57;;;;;;;23.90;16.30;;;;;;;6.92;91.40;100894.42;107324;1259;81171;-55
2023/01/07 11:04:31;;;;;;;22.70;15.10;;;;;;;6.91;91.31;100890.05;107365;1260;82268;-57
2023/01/07 11:07:15;;;;;;;24.30;16.50;;;;;;;6.88;91.43;100890.70;107381;1257;98256;-58
2023/01/07 11:10:04;;;;;;;26.00;16.10;;;;;;;6.97;91.16;100889.95;107348;1257;89995;-57
2023/01/07 11:12:49;;;;;;;23.70;16.10;;;;;;;7.06;90.94;100889.02;107385;1258;94454;-58
2023/01/07 11:15:35;;;;;;;29.30;18.80;;;;;;;7.08;90.65;100887.27;107311;1255;81845;-58
2023/01/07 11:18:17;;;;;;;24.80;17.20;;;;;;;7.10;90.66;100885.06;107392;1256;80910;-58
2023/01/07 11:20:56;;;;;;;25.00;16.20;;;;;;;7.15;90.78;100887.05;107285;1260;98112;-56
2023/01/07 11:23:37;;;;;;;24.10;15.70;;;;;;;7.23;90.86;100887.47;107353;1258;87743;-56
2023/01/07 11:26:16;;;;;;;24.10;16.30;;;;;;;7.26;90.69;100885.95;107351;1259;95699;-59
2023/01/07 11:29:03;;;;;;;27.40;17.40;;;;;;;7.32;90.65;100881.89;107325;1256;80423;-58
2023/01/07 11:31:53;;;;;;;23.20;15.40;;;;;;;7.36;90.50;100879.17;107345;1260;82238;-58
2023/01/07 11:34:35;;;;;;;23.50;15.80;;;;;;;7.37;90.32;100872.46;107319;1258;98472;-53
2023/01/07 11:37:30;;;;;;;24.00;15.30;;;;;;;7.38;90.13;100872.14;107371;1259;88577;-56
2023/01/07 11:40:21;;;;;;;26.20;17.50;;;;;;;7.36;90.37;100873.32;107335;1260;92138;-59
2023/01/07 11:42:59;;;;;;;25.70;16.90;;;;;;;7.36;90.18;100874.80;107387;1256;80990;-59
2023/01/07 11:45:48;;;;;;;25.80;16.50;;;;;;;7.23;90.17;100871.33;107390;1255;81934;-57
2023/01/07 11:48:30;;;;;;;27.90;16.90;;;;;;;7.12;90.40;100870.53;107383;1260;99330;-58
2023/01/07 11:51:13;;;;;;;26.30;16.40;;;;;;;7.08;90.28;100865.24;107376;1257;88732;-58
2023/01/07 11:53:56;;;;;;;22.20;16.20;;;;;;;7.07;90.01;100867.81;107366;1259;95754;-56
2023/01/07 11:56:34;;;;;;;25.50;16.80;;;;;;;7.02;90.03;100863.02;107367;1257;80040;-59
2023/01/07 11:59:33;;;;;;;25.10;16.90;;;;;;;6.98;90.05;100855.83;107362;1257;82842;-59
2023/01/07 12:02:27;;;;;;;24.40;15.30;;;;;;;6.87;89.88;100850.14;107393;1259;99618;-58
2023/01/07 12:05:22;;;;;;;23.60;15.40;;;;;;;6.72;89.77;100846.91;107330;1258;88513;-59
2023/01/07 12:07:56;;;;;;;;;;;;;;;6.65;89.98;100847.79;107367;1257;94624;-58
2023/01/07 12:10:37;;;;;;;26.90;17.20;;;;;;;6.67;90.12;100842.98;107363;1256;80744;-57
2023/01/07 12:13:24;;;;;;;27.10;16.70;;;;;;;6.74;90.16;100836.46;107345;1255;82475;-57
2023/01/07 12:16:02;;;;;;;27.70;17.90;;;;;;;6.80;90.38;100830.17;107371;1257;99627;-58
2023/01/07 12:18:59;;;;;;;28.60;18.60;;;;;;;6.82;90.08;100830.27;107363;1257;87619;-58
2023/01/07 12:22:09;;;;;;;30.00;17.90;;;;;;;6.83;90.27;100828.77;107218;1257;94447;-58
2023/01/07 12:25:16;;;;;;;30.50;20.30;;;;;;;6.82;90.23;100822.58;107322;1257;81632;-57
2023/01/07 12:28:02;;;;;;;32.70;20.20;;;;;;;6.76;90.04;100819.94;107310;1255;80992;-51
2023/01/07 12:31:17;;;;;;;29.80;19.70;;;;;;;6.76;90.21;100822.88;107319;1260;99253;-57
2023/01/07 12:34:13;;;;;;;33.70;22.30;;;;;;;6.71;90.21;100824.09;107341;1257;87216;-57